Bookmark and Share
Track history (hours):
 

Filia Ariea

Last reported at 2014-Apr-24 05:32 UTC. Time now 2014-Apr-24 05:56 UTC.
Position N 55°00' E 013°41'.

Length 90 m; draft 3.6 m.

Type: Cargo ship. MMSI: 244662000.

NotesDate/timePositionNaut miles runAvg speedWind from/ knotsBaromVisibWave heightAir tempDewpointWater temp
2014-Apr-24 05:32N 55°00' E 013°41'1111.1
2014-Apr-24 04:33N 55°04' E 013°59'1111.2
2014-Apr-24 03:33N 55°12' E 014°13'1211.6
2014-Apr-24 02:33N 55°21' E 014°27'1111.3
2014-Apr-24 01:33N 55°28' E 014°42'1211.6
2014-Apr-24 00:32N 55°34' E 014°60'3511.8
2014-Apr-23 21:32N 55°52' E 015°54'1211.7
2014-Apr-23 20:33N 55°58' E 016°11'1211.8
2014-Apr-23 19:33N 56°04' E 016°29'  
2014-Apr-16 12:27N 55°44' E 015°43'1011.4
2014-Apr-16 11:33N 55°39' E 015°27'1111.2
2014-Apr-16 10:33N 55°33' E 015°10'1212.2
2014-Apr-16 09:33N 55°27' E 014°52'9 8.7
2014-Apr-16 08:33N 55°22' E 014°38'1111.1
2014-Apr-16 07:33N 55°14' E 014°25'1111.0
2014-Apr-16 06:33N 55°10' E 014°07'1111.0
2014-Apr-16 05:33N 55°11' E 013°48'1111.3
2014-Apr-16 04:33N 55°12' E 013°28'1111.1
2014-Apr-16 03:33N 55°13' E 013°09'1111.1
2014-Apr-16 02:33N 55°15' E 012°50'9 9.0
2014-Apr-16 01:33N 55°21' E 012°39'1110.6
2014-Apr-16 00:33N 55°32' E 012°42'1110.9
2014-Apr-15 23:33N 55°43' E 012°41'1110.8
2014-Apr-15 22:33N 55°53' E 012°39'1110.7
2014-Apr-15 21:33N 56°04' E 012°37'1111.3
2014-Apr-15 20:33N 56°13' E 012°24'1211.6
2014-Apr-15 19:33N 56°24' E 012°18'1211.9
2014-Apr-15 18:33N 56°35' E 012°12'1212.1
2014-Apr-15 17:32N 56°47' E 012°06'1212.1
2014-Apr-15 16:32N 56°59' E 011°60'1211.9
2014-Apr-15 15:33N 57°10' E 011°54'1211.9
2014-Apr-15 14:33N 57°21' E 011°43'12 5.9
2014-Apr-15 12:34N 57°31' E 011°34'1111.4
2014-Apr-15 11:34N 57°42' E 011°29'1111.0
2014-Apr-15 10:34N 57°53' E 011°30'1111.3
2014-Apr-15 09:34N 58°01' E 011°46'  

Dump ship's entire track history

sailing weather and tide predictions

Filia Ariea — PIET — position and weather